Time;durP1;ratioP1;P1;durP2;ratioP2;P2;SDS_P1;SDS_P2;PMS_P1;PMS_P2;Temp;Humidity;BMP_temperature;BMP_pressure;BME280_temperature;BME280_humidity;BME280_pressure;Samples;Min_cycle;Max_cycle;Signal;HPM_P1;HPM_P2
2022/06/22 00:01:05;;;;;;;0.10;0.10;;;14.00;99.90;;;;;;4895707;29;20044;-69
2022/06/22 00:03:33;;;;;;;0.20;0.20;;;14.00;99.90;;;;;;4895480;29;20051;-69
2022/06/22 00:05:58;;;;;;;0.35;0.35;;;14.00;99.90;;;;;;4894918;29;20045;-69
2022/06/22 00:08:35;;;;;;;0.50;0.50;;;14.00;99.90;;;;;;4895645;29;20051;-69
2022/06/22 00:11:12;;;;;;;0.10;0.10;;;13.90;99.90;;;;;;4895909;29;20081;-69
2022/06/22 00:13:46;;;;;;;0.17;0.17;;;14.00;99.90;;;;;;4907852;29;20135;-69
2022/06/22 00:16:24;;;;;;;0.20;0.20;;;13.90;99.90;;;;;;4895968;29;20049;-69
2022/06/22 00:18:51;;;;;;;2.65;1.15;;;13.90;99.90;;;;;;4895694;29;20052;-69
2022/06/22 00:21:32;;;;;;;0.47;0.47;;;13.90;99.90;;;;;;4895722;29;20516;-69
2022/06/22 00:24:02;;;;;;;1.35;0.80;;;13.90;99.90;;;;;;4895093;29;20044;-69
2022/06/22 00:26:32;;;;;;;0.10;0.10;;;13.80;99.90;;;;;;4896499;29;20037;-69
2022/06/22 00:29:09;;;;;;;0.57;0.57;;;13.80;99.90;;;;;;4893577;29;20060;-69
2022/06/22 00:31:57;;;;;;;0.30;0.30;;;13.80;99.90;;;;;;4896449;29;20059;-69
2022/06/22 00:34:29;;;;;;;0.65;0.65;;;13.80;99.90;;;;;;4892650;29;20084;-69
2022/06/22 00:37:05;;;;;;;0.10;0.10;;;13.80;99.90;;;;;;4892724;29;20059;-69
2022/06/22 00:39:37;;;;;;;0.20;0.20;;;13.60;99.90;;;;;;4901098;29;20484;-69
2022/06/22 00:42:14;;;;;;;0.60;0.60;;;13.70;99.90;;;;;;4896875;29;20055;-69
2022/06/22 00:44:57;;;;;;;0.10;0.10;;;13.70;99.90;;;;;;4894050;29;20081;-69
2022/06/22 00:47:33;;;;;;;1.20;1.08;;;13.70;99.90;;;;;;4894506;29;20493;-69
2022/06/22 00:50:11;;;;;;;3.00;1.75;;;13.60;99.90;;;;;;4894918;29;20052;-69
2022/06/22 00:52:54;;;;;;;0.45;0.45;;;13.60;99.90;;;;;;4894786;29;20055;-69
2022/06/22 00:55:57;;;;;;;0.30;0.30;;;13.60;99.90;;;;;;4892959;29;20072;-69
2022/06/22 00:58:32;;;;;;;0.50;0.50;;;13.60;99.90;;;;;;4882872;29;20466;-69
2022/06/22 01:01:22;;;;;;;0.10;0.10;;;13.60;99.90;;;;;;4895418;29;20139;-69
2022/06/22 01:04:02;;;;;;;2.03;0.75;;;13.60;99.90;;;;;;4913319;29;20056;-69
2022/06/22 01:06:45;;;;;;;0.40;0.40;;;13.50;99.90;;;;;;4906679;29;20048;-69
2022/06/22 01:09:15;;;;;;;0.22;0.20;;;13.50;99.90;;;;;;4912942;29;20128;-69
2022/06/22 01:12:18;;;;;;;0.30;0.30;;;13.50;99.90;;;;;;4907434;29;20444;-69
2022/06/22 01:15:02;;;;;;;0.52;0.52;;;13.50;99.90;;;;;;4908833;29;20063;-69
2022/06/22 01:17:37;;;;;;;1.25;1.20;;;13.50;99.90;;;;;;4908812;29;20111;-69
2022/06/22 01:20:17;;;;;;;0.73;0.55;;;13.40;99.90;;;;;;4913462;29;20115;-69
2022/06/22 01:22:49;;;;;;;0.28;0.28;;;13.30;99.90;;;;;;4905604;29;20116;-69
2022/06/22 01:25:30;;;;;;;0.10;0.10;;;13.40;99.90;;;;;;4895723;29;20060;-69
2022/06/22 01:27:55;;;;;;;0.10;0.10;;;13.40;99.90;;;;;;4898341;29;20477;-69
2022/06/22 01:30:31;;;;;;;0.15;0.15;;;13.40;99.90;;;;;;4897022;29;20055;-69
2022/06/22 01:32:57;;;;;;;4.47;2.92;;;13.40;99.90;;;;;;4899730;29;20045;-69
2022/06/22 01:35:27;;;;;;;0.55;0.52;;;13.30;99.90;;;;;;4897961;29;20070;-69
2022/06/22 01:37:53;;;;;;;0.30;0.30;;;13.30;99.90;;;;;;4897962;29;20056;-69
2022/06/22 01:40:22;;;;;;;0.40;0.40;;;13.30;99.90;;;;;;4910403;29;20473;-69
2022/06/22 01:42:58;;;;;;;2.22;0.52;;;13.30;99.90;;;;;;4902372;29;20045;-69
2022/06/22 01:45:47;;;;;;;0.10;0.10;;;13.30;99.90;;;;;;4897495;29;20055;-69
2022/06/22 01:48:20;;;;;;;0.75;0.75;;;13.30;99.90;;;;;;4897632;29;20047;-69
2022/06/22 01:50:57;;;;;;;0.38;0.38;;;13.30;99.90;;;;;;4916558;29;20515;-69
2022/06/22 01:53:39;;;;;;;13.88;1.08;;;13.30;99.90;;;;;;4915355;29;20052;-69
2022/06/22 01:56:19;;;;;;;0.30;0.30;;;13.20;99.90;;;;;;4910436;29;20052;-69
2022/06/22 01:58:49;;;;;;;2.05;1.27;;;13.30;99.90;;;;;;4915825;29;20044;-69
2022/06/22 02:01:49;;;;;;;0.30;0.30;;;13.30;99.90;;;;;;4899408;29;20059;-69
2022/06/22 02:04:33;;;;;;;1.08;0.75;;;13.20;99.90;;;;;;4897729;29;20064;-69
2022/06/22 02:10:03;;;;;;;0.85;0.85;;;13.20;99.90;;;;;;4910005;29;20100;-69
2022/06/22 02:12:33;;;;;;;0.75;0.75;;;13.20;99.90;;;;;;4899443;29;20044;-69
2022/06/22 02:15:18;;;;;;;0.68;0.68;;;13.10;99.90;;;;;;4908038;29;20131;-69
2022/06/22 02:17:45;;;;;;;0.82;0.70;;;13.20;99.90;;;;;;4915607;29;20056;-69
2022/06/22 02:20:28;;;;;;;0.10;0.10;;;13.10;99.90;;;;;;4913316;29;20463;-69
2022/06/22 02:23:00;;;;;;;4.85;2.08;;;13.10;99.90;;;;;;4916112;29;20636;-69
2022/06/22 02:25:27;;;;;;;1.55;0.85;;;13.10;99.90;;;;;;4915974;29;20453;-69
2022/06/22 02:27:53;;;;;;;1.02;0.95;;;13.10;99.90;;;;;;4898771;29;20057;-69
2022/06/22 02:30:18;;;;;;;1.42;1.05;;;13.10;99.90;;;;;;4897120;29;20059;-70
2022/06/22 02:32:45;;;;;;;1.08;0.57;;;13.10;99.90;;;;;;4897394;29;20124;-69
2022/06/22 02:35:13;;;;;;;0.22;0.22;;;13.00;99.90;;;;;;4895324;29;20053;-69
2022/06/22 02:38:02;;;;;;;0.50;0.50;;;13.00;99.90;;;;;;4909862;29;20064;-69
2022/06/22 02:40:30;;;;;;;0.00;0.00;;;12.90;99.90;;;;;;4911561;29;20063;-69
2022/06/22 02:45:41;;;;;;;1.08;0.55;;;12.90;99.90;;;;;;4911151;29;20492;-69
2022/06/22 02:48:13;;;;;;;0.20;0.20;;;12.90;99.90;;;;;;4913514;29;20052;-69
2022/06/22 02:50:43;;;;;;;0.20;0.20;;;12.90;99.90;;;;;;4914378;29;20658;-69
2022/06/22 02:53:36;;;;;;;0.30;0.30;;;12.80;99.90;;;;;;4913011;29;20048;-69
2022/06/22 02:56:11;;;;;;;0.00;0.00;;;12.90;99.90;;;;;;4892795;29;20501;-69
2022/06/22 02:58:37;;;;;;;0.28;0.28;;;13.00;99.90;;;;;;4896700;29;20088;-69
2022/06/22 03:01:12;;;;;;;0.10;0.10;;;13.00;99.90;;;;;;4896208;29;20048;-69
2022/06/22 03:03:39;;;;;;;0.60;0.60;;;12.90;99.90;;;;;;4895291;29;20496;-69
2022/06/22 03:06:09;;;;;;;0.20;0.20;;;12.90;99.90;;;;;;4896379;29;20052;-69
2022/06/22 03:08:35;;;;;;;0.10;0.10;;;12.90;99.90;;;;;;4898248;29;20131;-69
2022/06/22 03:11:04;;;;;;;0.77;0.77;;;12.90;99.90;;;;;;4915136;29;20179;-69
2022/06/22 03:13:46;;;;;;;0.25;0.25;;;12.80;99.90;;;;;;4915599;29;20051;-69
2022/06/22 03:16:25;;;;;;;0.30;0.30;;;12.70;99.90;;;;;;4895191;29;20172;-69
2022/06/22 03:18:52;;;;;;;0.05;0.05;;;12.80;99.90;;;;;;4915043;29;20048;-69
2022/06/22 03:21:18;;;;;;;0.38;0.38;;;12.60;99.90;;;;;;4913756;29;20130;-69
2022/06/22 03:23:58;;;;;;;0.35;0.35;;;12.60;99.90;;;;;;4914820;29;20084;-69
2022/06/22 03:26:43;;;;;;;0.10;0.10;;;12.60;99.90;;;;;;4911913;29;20654;-69
2022/06/22 03:29:24;;;;;;;0.15;0.15;;;12.70;99.90;;;;;;4901459;29;20397;-69
2022/06/22 03:32:11;;;;;;;0.28;0.20;;;12.70;99.90;;;;;;4915427;29;20044;-69
2022/06/22 03:35:00;;;;;;;0.10;0.10;;;12.60;99.90;;;;;;4900100;29;20064;-69
2022/06/22 03:37:32;;;;;;;0.10;0.10;;;12.60;99.90;;;;;;4888321;29;20075;-69
2022/06/22 03:40:07;;;;;;;0.40;0.40;;;12.50;99.90;;;;;;4904265;29;20056;-69
2022/06/22 03:42:38;;;;;;;0.20;0.20;;;12.60;99.90;;;;;;4913085;29;20377;-69
2022/06/22 03:45:07;;;;;;;0.30;0.30;;;12.60;99.90;;;;;;4910778;29;20432;-69
2022/06/22 03:47:38;;;;;;;1.33;0.32;;;12.60;99.90;;;;;;4914559;29;20048;-69
2022/06/22 03:50:13;;;;;;;0.20;0.20;;;12.60;99.90;;;;;;4913372;29;20457;-69
2022/06/22 03:52:48;;;;;;;0.25;0.20;;;12.60;99.90;;;;;;4910593;29;20300;-69
2022/06/22 03:55:22;;;;;;;1.45;0.80;;;12.60;99.90;;;;;;4913114;29;20052;-69
2022/06/22 03:57:51;;;;;;;0.25;0.25;;;12.70;99.90;;;;;;4912713;29;20048;-69
2022/06/22 04:00:17;;;;;;;0.30;0.30;;;12.70;99.90;;;;;;4909026;29;20060;-69
2022/06/22 04:02:44;;;;;;;0.10;0.10;;;12.80;99.90;;;;;;4914446;29;20488;-69
2022/06/22 04:05:19;;;;;;;0.13;0.13;;;12.80;99.90;;;;;;4911421;29;20044;-69
2022/06/22 04:07:45;;;;;;;0.28;0.25;;;12.80;99.90;;;;;;4914947;29;20158;-69
2022/06/22 04:10:40;;;;;;;0.22;0.22;;;12.90;99.90;;;;;;4901772;29;20051;-69
2022/06/22 04:13:20;;;;;;;0.30;0.30;;;12.90;99.90;;;;;;4893713;29;20084;-69
2022/06/22 04:15:57;;;;;;;0.25;0.25;;;13.00;99.90;;;;;;4903885;29;20074;-69
2022/06/22 04:18:30;;;;;;;0.40;0.40;;;13.00;99.90;;;;;;4895495;29;20377;-69
2022/06/22 04:21:05;;;;;;;0.52;0.52;;;13.00;99.90;;;;;;4894914;29;20044;-69
2022/06/22 04:23:46;;;;;;;0.10;0.10;;;13.10;99.90;;;;;;4905979;29;20048;-69
2022/06/22 04:26:24;;;;;;;0.15;0.15;;;13.10;99.90;;;;;;4911995;29;20063;-69
2022/06/22 04:28:56;;;;;;;0.30;0.20;;;13.20;99.90;;;;;;4910744;29;20044;-69
2022/06/22 04:31:31;;;;;;;0.10;0.10;;;13.30;99.90;;;;;;4912362;29;20449;-69
2022/06/22 04:34:13;;;;;;;0.20;0.20;;;13.30;99.90;;;;;;4902493;29;20116;-69
2022/06/22 04:36:54;;;;;;;0.13;0.13;;;13.40;99.90;;;;;;4894003;29;20413;-69
2022/06/22 04:39:27;;;;;;;0.38;0.38;;;13.40;99.90;;;;;;4909361;29;20052;-69
2022/06/22 04:41:53;;;;;;;0.20;0.20;;;13.50;99.90;;;;;;4893631;29;20054;-69
2022/06/22 04:44:26;;;;;;;0.50;0.50;;;13.60;99.90;;;;;;4893536;29;20055;-69
2022/06/22 04:46:56;;;;;;;0.43;0.43;;;13.70;99.90;;;;;;4905606;29;20052;-69
2022/06/22 04:49:27;;;;;;;0.50;0.50;;;13.80;99.90;;;;;;4894643;29;20096;-69
2022/06/22 04:52:03;;;;;;;0.28;0.28;;;13.90;99.90;;;;;;4895127;29;20076;-69
2022/06/22 04:54:35;;;;;;;0.22;0.22;;;13.90;99.90;;;;;;4893292;29;20076;-69
2022/06/22 04:57:29;;;;;;;0.20;0.20;;;14.00;99.90;;;;;;4896266;29;20052;-69
2022/06/22 04:59:55;;;;;;;1.30;1.02;;;14.10;99.90;;;;;;4893968;29;20067;-69
2022/06/22 05:02:27;;;;;;;1.75;0.75;;;14.20;99.90;;;;;;4896475;29;20056;-69
2022/06/22 05:04:57;;;;;;;0.10;0.10;;;14.30;99.90;;;;;;4911030;29;20086;-69
2022/06/22 05:07:57;;;;;;;0.10;0.10;;;14.30;99.90;;;;;;4917622;29;20099;-69
2022/06/22 05:10:28;;;;;;;0.10;0.10;;;14.40;99.90;;;;;;4916268;29;20087;-69
2022/06/22 05:12:59;;;;;;;0.00;0.00;;;14.50;99.90;;;;;;4913476;29;20052;-69
2022/06/22 05:15:34;;;;;;;0.15;0.15;;;14.50;99.90;;;;;;4901035;29;20051;-69
2022/06/22 05:18:02;;;;;;;0.10;0.10;;;14.60;99.90;;;;;;4898634;29;20104;-69
2022/06/22 05:20:28;;;;;;;0.13;0.13;;;14.60;99.90;;;;;;4915378;29;20048;-69
2022/06/22 05:22:57;;;;;;;0.50;0.50;;;14.70;99.90;;;;;;4917055;29;20055;-69
2022/06/22 05:25:23;;;;;;;1.98;1.23;;;14.70;99.90;;;;;;4913052;29;20052;-69
2022/06/22 05:28:02;;;;;;;0.65;0.65;;;14.80;99.90;;;;;;4917226;29;20052;-69
2022/06/22 05:30:39;;;;;;;0.10;0.10;;;14.90;99.90;;;;;;4915162;29;20044;-69
2022/06/22 05:33:12;;;;;;;1.65;1.27;;;14.90;99.90;;;;;;4903034;29;20060;-69
2022/06/22 05:35:58;;;;;;;0.45;0.43;;;14.90;99.90;;;;;;4896627;29;20081;-69
2022/06/22 05:38:26;;;;;;;0.08;0.08;;;14.90;99.90;;;;;;4898152;29;20049;-69
2022/06/22 05:40:53;;;;;;;0.15;0.15;;;14.90;99.90;;;;;;4912070;29;20079;-69
2022/06/22 05:43:20;;;;;;;0.10;0.10;;;15.00;99.90;;;;;;4912465;29;20624;-69
2022/06/22 05:45:57;;;;;;;0.10;0.10;;;15.00;99.90;;;;;;4917108;29;20126;-69
2022/06/22 05:48:25;;;;;;;0.32;0.28;;;15.10;99.90;;;;;;4899158;29;20531;-69
2022/06/22 05:51:13;;;;;;;0.25;0.25;;;15.20;99.90;;;;;;4896410;29;20049;-69
2022/06/22 05:53:46;;;;;;;0.30;0.30;;;15.20;99.90;;;;;;4897856;29;20523;-69
2022/06/22 05:56:15;;;;;;;0.00;0.00;;;15.30;99.90;;;;;;4897861;29;20040;-69
2022/06/22 05:59:13;;;;;;;0.17;0.17;;;15.40;99.90;;;;;;4910756;29;20048;-69
2022/06/22 06:02:12;;;;;;;0.10;0.10;;;15.40;99.90;;;;;;4907199;29;20084;-69
2022/06/22 06:04:49;;;;;;;0.10;0.10;;;15.50;99.90;;;;;;4895942;29;20060;-69
2022/06/22 06:07:32;;;;;;;0.32;0.32;;;15.60;99.90;;;;;;4894881;29;20060;-69
2022/06/22 06:09:58;;;;;;;0.03;0.03;;;15.60;99.90;;;;;;4896979;29;20528;-69
2022/06/22 06:12:30;;;;;;;0.00;0.00;;;15.60;99.90;;;;;;4896534;29;20056;-69
2022/06/22 06:14:56;;;;;;;0.30;0.30;;;15.60;99.90;;;;;;4908021;29;20052;-69
2022/06/22 06:17:30;;;;;;;0.00;0.00;;;15.60;99.90;;;;;;4916009;29;20052;-69
2022/06/22 06:19:57;;;;;;;0.35;0.35;;;15.70;99.90;;;;;;4905233;29;20870;-69
2022/06/22 06:22:25;;;;;;;0.10;0.10;;;15.70;99.90;;;;;;4908788;29;20040;-69
2022/06/22 06:27:45;;;;;;;0.10;0.10;;;15.90;99.90;;;;;;4899128;29;20052;-69
2022/06/22 06:30:29;;;;;;;0.00;0.00;;;15.90;99.90;;;;;;4914470;29;20048;-69
2022/06/22 06:33:24;;;;;;;0.15;0.15;;;15.90;99.90;;;;;;4903958;29;20052;-69
2022/06/22 06:36:14;;;;;;;0.30;0.30;;;16.00;99.90;;;;;;4897657;29;20115;-69
2022/06/22 06:39:08;;;;;;;0.77;0.70;;;16.00;99.90;;;;;;4915778;29;20056;-69
2022/06/22 06:41:38;;;;;;;;;;;16.10;99.90;;;;;;4905205;29;20059;-69
2022/06/22 06:44:11;;;;;;;0.03;0.03;;;16.20;99.90;;;;;;4913029;29;19982;-69
2022/06/22 06:46:38;;;;;;;0.10;0.10;;;16.20;99.90;;;;;;4913007;29;20060;-69
2022/06/22 06:49:39;;;;;;;0.20;0.20;;;16.30;99.90;;;;;;4911376;29;20399;-69
2022/06/22 06:52:19;;;;;;;0.85;0.85;;;16.30;99.90;;;;;;4912274;29;20060;-69
2022/06/22 06:55:04;;;;;;;0.00;0.00;;;16.40;99.90;;;;;;4913057;29;20087;-69
2022/06/22 06:57:31;;;;;;;0.10;0.10;;;16.40;99.90;;;;;;4915772;29;20123;-69
2022/06/22 07:00:00;;;;;;;0.10;0.10;;;16.40;99.90;;;;;;4915842;29;20051;-69
2022/06/22 07:02:41;;;;;;;0.10;0.10;;;16.50;99.90;;;;;;4911000;29;20562;-69
2022/06/22 07:05:13;;;;;;;0.52;0.30;;;16.50;99.90;;;;;;4896349;29;20051;-69
2022/06/22 07:07:45;;;;;;;0.00;0.00;;;16.60;99.90;;;;;;4893748;29;20468;-69
2022/06/22 07:10:19;;;;;;;0.65;0.47;;;16.70;99.90;;;;;;4895112;29;20060;-69
2022/06/22 07:12:47;;;;;;;0.00;0.00;;;16.70;99.90;;;;;;4897988;29;20045;-69
2022/06/22 07:15:20;;;;;;;0.03;0.03;;;16.70;99.90;;;;;;4908095;29;20511;-69
2022/06/22 07:17:50;;;;;;;0.00;0.00;;;16.70;99.90;;;;;;4914331;29;20044;-69
2022/06/22 07:20:23;;;;;;;0.08;0.08;;;16.80;99.90;;;;;;4913812;29;20059;-69
2022/06/22 07:22:59;;;;;;;0.10;0.10;;;16.90;99.90;;;;;;4911773;29;20052;-70
2022/06/22 07:25:36;;;;;;;0.10;0.10;;;16.90;99.90;;;;;;4902474;29;20132;-70
2022/06/22 07:28:08;;;;;;;0.05;0.05;;;17.00;99.90;;;;;;4894704;29;20470;-69
2022/06/22 07:30:42;;;;;;;0.10;0.10;;;17.00;99.90;;;;;;4903526;29;20082;-69
2022/06/22 07:33:11;;;;;;;0.10;0.10;;;17.00;99.90;;;;;;4914458;29;20515;-69
2022/06/22 07:35:53;;;;;;;0.00;0.00;;;17.10;99.90;;;;;;4912871;29;20111;-69
2022/06/22 07:38:46;;;;;;;0.10;0.10;;;17.20;99.90;;;;;;4908617;29;20048;-69
2022/06/22 07:41:19;;;;;;;0.13;0.13;;;17.20;99.90;;;;;;4897173;29;20075;-69
2022/06/22 07:43:55;;;;;;;0.00;0.00;;;17.20;99.90;;;;;;4912930;29;20515;-69
2022/06/22 07:46:40;;;;;;;0.00;0.00;;;17.20;99.90;;;;;;4914543;29;20436;-69
2022/06/22 07:49:23;;;;;;;0.00;0.00;;;17.30;99.90;;;;;;4901506;29;20045;-68
2022/06/22 07:51:52;;;;;;;;;;;17.40;99.90;;;;;;4895880;29;20060;-69
2022/06/22 07:54:36;;;;;;;0.10;0.10;;;17.50;99.90;;;;;;4898190;29;19927;-69
2022/06/22 07:57:28;;;;;;;0.00;0.00;;;17.60;99.90;;;;;;4912453;29;20063;-69
2022/06/22 08:00:01;;;;;;;0.00;0.00;;;17.60;99.90;;;;;;4914795;29;20136;-69
2022/06/22 08:02:39;;;;;;;0.10;0.10;;;17.70;99.90;;;;;;4910248;29;20789;-69
2022/06/22 08:05:11;;;;;;;0.00;0.00;;;17.70;99.90;;;;;;4894532;29;20057;-69
2022/06/22 08:07:46;;;;;;;0.10;0.10;;;17.80;99.90;;;;;;4894512;29;20187;-69
2022/06/22 08:10:31;;;;;;;0.00;0.00;;;17.90;99.90;;;;;;4894179;29;20430;-69
2022/06/22 08:13:07;;;;;;;0.00;0.00;;;17.90;99.90;;;;;;4896302;29;20049;-69
2022/06/22 08:15:43;;;;;;;0.00;0.00;;;17.90;99.90;;;;;;4897886;29;20142;-70
2022/06/22 08:18:09;;;;;;;0.30;0.30;;;18.00;99.90;;;;;;4906791;29;20168;-69
2022/06/22 08:20:38;;;;;;;0.20;0.20;;;18.10;99.90;;;;;;4912578;29;20079;-69
2022/06/22 08:23:06;;;;;;;0.00;0.00;;;18.20;99.90;;;;;;4914065;29;20051;-69
2022/06/22 08:25:35;;;;;;;0.15;0.15;;;18.30;99.90;;;;;;4913407;29;20048;-70
2022/06/22 08:28:03;;;;;;;0.10;0.10;;;18.20;99.90;;;;;;4896790;29;20539;-69
2022/06/22 08:30:30;;;;;;;0.00;0.00;;;18.20;99.90;;;;;;4895082;29;20477;-69
2022/06/22 08:33:03;;;;;;;0.10;0.10;;;18.30;99.90;;;;;;4894802;29;20044;-69
2022/06/22 08:35:34;;;;;;;0.00;0.00;;;18.40;99.90;;;;;;4900585;29;20059;-69
2022/06/22 08:38:10;;;;;;;0.08;0.08;;;18.30;99.90;;;;;;4910679;29;20197;-69
2022/06/22 08:40:54;;;;;;;0.00;0.00;;;18.30;99.90;;;;;;4894148;29;20508;-69
2022/06/22 08:43:35;;;;;;;0.13;0.13;;;18.40;99.90;;;;;;4894801;29;20171;-69
2022/06/22 08:46:09;;;;;;;0.05;0.05;;;18.60;99.90;;;;;;4892065;29;20084;-69
2022/06/22 08:48:49;;;;;;;0.00;0.00;;;18.70;99.90;;;;;;4893401;29;20481;-69
2022/06/22 08:51:57;;;;;;;0.00;0.00;;;18.80;99.90;;;;;;4893544;29;20053;-69
2022/06/22 08:54:36;;;;;;;0.20;0.20;;;18.70;99.90;;;;;;4892978;29;20112;-69
2022/06/22 08:57:25;;;;;;;0.00;0.00;;;18.70;99.90;;;;;;4892823;29;20059;-70
2022/06/22 09:00:04;;;;;;;0.22;0.22;;;18.80;99.90;;;;;;4893699;29;20044;-69
2022/06/22 09:02:40;;;;;;;0.00;0.00;;;18.90;99.90;;;;;;4894920;29;20056;-69
2022/06/22 09:05:32;;;;;;;0.10;0.10;;;19.00;99.90;;;;;;4895096;29;20076;-69
2022/06/22 09:08:33;;;;;;;0.45;0.30;;;19.00;99.90;;;;;;4913172;29;20067;-69
2022/06/22 09:11:02;;;;;;;0.20;0.20;;;19.10;99.90;;;;;;4912288;29;20059;-69
2022/06/22 09:13:45;;;;;;;0.52;0.52;;;19.20;99.90;;;;;;4894536;29;20101;-69
2022/06/22 09:16:23;;;;;;;0.20;0.20;;;19.40;99.90;;;;;;4894360;29;20052;-69
2022/06/22 09:19:15;;;;;;;0.00;0.00;;;19.40;99.90;;;;;;4896493;29;20572;-69
2022/06/22 09:21:47;;;;;;;0.15;0.15;;;19.40;99.90;;;;;;4894167;29;20080;-69
2022/06/22 09:24:36;;;;;;;0.10;0.10;;;19.50;99.90;;;;;;4893266;29;20083;-69
2022/06/22 09:27:20;;;;;;;0.13;0.13;;;19.50;99.90;;;;;;4892272;29;20063;-69
2022/06/22 09:29:52;;;;;;;0.00;0.00;;;19.60;99.90;;;;;;4903562;29;20079;-69
2022/06/22 09:32:39;;;;;;;0.20;0.20;;;19.70;99.90;;;;;;4912172;29;20052;-69
2022/06/22 09:35:43;;;;;;;0.00;0.00;;;19.70;99.90;;;;;;4911051;29;20525;-69
2022/06/22 09:38:26;;;;;;;0.15;0.13;;;19.80;99.90;;;;;;4909050;29;20059;-69
2022/06/22 09:41:27;;;;;;;0.98;0.28;;;19.90;99.90;;;;;;4904042;29;20131;-69
2022/06/22 09:44:05;;;;;;;0.00;0.00;;;20.00;99.90;;;;;;4892926;29;20058;-69
2022/06/22 09:46:53;;;;;;;0.40;0.40;;;20.30;99.90;;;;;;4898728;29;20056;-70
2022/06/22 09:49:40;;;;;;;0.25;0.25;;;20.70;99.90;;;;;;4895650;29;20381;-69
2022/06/22 09:52:36;;;;;;;0.40;0.40;;;21.00;99.90;;;;;;4896618;29;20508;-69
2022/06/22 09:58:40;;;;;;;0.10;0.10;;;21.70;99.90;;;;;;4911123;29;20104;-69
2022/06/22 10:01:30;;;;;;;0.45;0.45;;;21.80;99.90;;;;;;4897561;29;20049;-69
2022/06/22 10:04:22;;;;;;;0.10;0.10;;;22.10;99.90;;;;;;4896007;29;20049;-69
2022/06/22 10:07:12;;;;;;;0.38;0.30;;;21.90;99.90;;;;;;4908736;29;20453;-69
2022/06/22 10:10:17;;;;;;;0.00;0.00;;;22.30;99.90;;;;;;4916780;29;20563;-69
2022/06/22 10:12:54;;;;;;;0.17;0.17;;;22.30;99.90;;;;;;4887761;29;20108;-70
2022/06/22 10:15:24;;;;;;;0.10;0.10;;;22.30;99.90;;;;;;4897552;29;20501;-70
2022/06/22 10:18:27;;;;;;;0.32;0.32;;;22.40;99.90;;;;;;4908270;29;20056;-69
2022/06/22 10:21:11;;;;;;;0.28;0.28;;;22.60;99.90;;;;;;4914990;29;20082;-69
2022/06/22 10:23:46;;;;;;;0.00;0.00;;;22.70;99.90;;;;;;4916456;29;20044;-70
2022/06/22 10:26:18;;;;;;;0.10;0.10;;;22.80;99.90;;;;;;4908352;29;20135;-70
2022/06/22 10:29:05;;;;;;;0.10;0.10;;;22.60;99.90;;;;;;4897127;29;20092;-69
2022/06/22 10:32:02;;;;;;;1.10;0.20;;;22.80;99.90;;;;;;4895263;29;20054;-69
2022/06/22 10:34:53;;;;;;;0.10;0.10;;;23.00;99.90;;;;;;4907116;29;20099;-69
2022/06/22 10:38:04;;;;;;;0.30;0.30;;;23.10;99.90;;;;;;4915967;29;20044;-69
2022/06/22 10:46:58;;;;;;;0.00;0.00;;;22.70;99.90;;;;;;4915176;29;20056;-69
2022/06/22 10:49:34;;;;;;;0.57;0.57;;;23.00;99.90;;;;;;4898265;29;20123;-69
2022/06/22 10:52:44;;;;;;;0.28;0.28;;;23.10;99.90;;;;;;4895640;29;20059;-69
2022/06/22 10:55:37;;;;;;;0.30;0.30;;;23.10;99.90;;;;;;4915485;29;20087;-70
2022/06/22 10:58:11;;;;;;;0.22;0.22;;;23.40;99.90;;;;;;4914685;29;20560;-70
2022/06/22 11:00:42;;;;;;;0.00;0.00;;;23.50;99.90;;;;;;4914792;29;20051;-70
2022/06/22 11:03:43;;;;;;;0.00;0.00;;;23.40;99.90;;;;;;4910888;29;20377;-69
2022/06/22 11:06:25;;;;;;;0.20;0.20;;;23.50;99.90;;;;;;4897769;29;20084;-69
2022/06/22 11:08:50;;;;;;;1.75;0.95;;;23.60;99.90;;;;;;4895841;29;20043;-69
2022/06/22 11:11:38;;;;;;;0.10;0.10;;;23.90;99.90;;;;;;4896086;29;20543;-69
2022/06/22 11:14:42;;;;;;;0.32;0.32;;;24.00;99.90;;;;;;4898481;29;20454;-69
2022/06/22 11:18:05;;;;;;;0.30;0.30;;;23.90;99.90;;;;;;4874765;29;20088;-69
2022/06/22 11:20:57;;;;;;;2.63;1.67;;;23.90;99.90;;;;;;4875970;29;20051;-70
2022/06/22 11:23:38;;;;;;;0.00;0.00;;;23.80;99.90;;;;;;4860277;29;20049;-70
2022/06/22 11:32:29;;;;;;;12.93;1.27;;;24.20;99.90;;;;;;4914934;29;20449;-69
2022/06/22 11:35:16;;;;;;;0.47;0.25;;;23.90;99.90;;;;;;4909789;29;20155;-69
2022/06/22 11:38:19;;;;;;;0.08;0.08;;;24.10;99.90;;;;;;4915046;29;20167;-69
2022/06/22 11:41:19;;;;;;;0.00;0.00;;;24.30;99.90;;;;;;4913660;29;20059;-69
2022/06/22 11:44:01;;;;;;;0.88;0.57;;;24.70;99.90;;;;;;4910795;29;20304;-69
2022/06/22 11:46:55;;;;;;;2.45;1.33;;;24.20;99.90;;;;;;4914690;29;20040;-69
2022/06/22 11:49:44;;;;;;;0.00;0.00;;;24.50;99.90;;;;;;4906261;29;20568;-69
2022/06/22 11:52:22;;;;;;;0.35;0.20;;;24.70;99.90;;;;;;4911818;29;20058;-69
2022/06/22 11:55:34;;;;;;;0.25;0.25;;;24.50;99.90;;;;;;4914706;29;20184;-69
2022/06/22 11:58:20;;;;;;;3.42;1.00;;;24.70;99.90;;;;;;4872547;29;20564;-69
2022/06/22 12:01:08;;;;;;;0.20;0.20;;;24.90;99.90;;;;;;4877824;29;20056;-69
2022/06/22 12:04:17;;;;;;;4.85;0.45;;;25.10;99.90;;;;;;4891895;29;20060;-69
2022/06/22 12:06:51;;;;;;;0.22;0.15;;;25.40;99.90;;;;;;4886063;29;20064;-69
2022/06/22 12:09:42;;;;;;;0.00;0.00;;;25.50;99.90;;;;;;4899154;29;20531;-69
2022/06/22 12:12:36;;;;;;;0.05;0.05;;;25.60;99.90;;;;;;4913305;29;20052;-69
2022/06/22 12:15:21;;;;;;;0.20;0.20;;;25.30;99.90;;;;;;4914147;29;20408;-69
2022/06/22 12:18:18;;;;;;;0.88;0.43;;;25.50;99.90;;;;;;4892747;29;20056;-69
2022/06/22 12:21:09;;;;;;;0.35;0.35;;;25.90;99.90;;;;;;4894949;29;20135;-69
2022/06/22 12:23:53;;;;;;;0.38;0.25;;;25.90;99.90;;;;;;4912925;29;20051;-69
2022/06/22 12:26:42;;;;;;;0.00;0.00;;;26.00;99.90;;;;;;4910307;29;20052;-69
2022/06/22 12:29:26;;;;;;;0.55;0.47;;;26.10;99.90;;;;;;4912446;29;20524;-69
2022/06/22 12:31:57;;;;;;;0.00;0.00;;;25.90;99.90;;;;;;4908060;29;20412;-70
2022/06/22 12:35:00;;;;;;;0.32;0.20;;;25.70;99.90;;;;;;4914051;29;20060;-69
2022/06/22 12:37:30;;;;;;;0.00;0.00;;;25.80;99.90;;;;;;4914272;29;20096;-69
2022/06/22 12:40:01;;;;;;;0.00;0.00;;;26.10;99.90;;;;;;4902265;29;20045;-69
2022/06/22 12:42:53;;;;;;;0.22;0.22;;;26.40;99.90;;;;;;4896339;29;20147;-69
2022/06/22 12:46:16;;;;;;;0.10;0.10;;;26.20;99.90;;;;;;4910038;29;20060;-70
2022/06/22 12:49:00;;;;;;;0.17;0.17;;;26.30;99.90;;;;;;4855599;29;20101;-69
2022/06/22 12:51:38;;;;;;;0.20;0.20;;;26.60;99.90;;;;;;4855613;29;20053;-69
2022/06/22 12:54:19;;;;;;;0.13;0.10;;;25.80;99.90;;;;;;4880246;29;20116;-69
2022/06/22 12:57:09;;;;;;;0.00;0.00;;;25.40;99.90;;;;;;4912911;29;20576;-69
2022/06/22 12:59:45;;;;;;;0.00;0.00;;;25.10;99.90;;;;;;4908459;29;20044;-69
2022/06/22 13:02:20;;;;;;;0.22;0.22;;;25.30;99.90;;;;;;4913767;29;20143;-69
2022/06/22 13:04:54;;;;;;;0.10;0.10;;;25.40;99.90;;;;;;4897475;29;20068;-69
2022/06/22 13:07:20;;;;;;;0.00;0.00;;;25.40;99.90;;;;;;4894035;29;20081;-70
2022/06/22 13:09:47;;;;;;;0.05;0.05;;;25.30;99.90;;;;;;4895149;29;20040;-69
2022/06/22 13:12:22;;;;;;;0.35;0.35;;;25.50;99.90;;;;;;4892289;29;20040;-69
2022/06/22 13:14:53;;;;;;;0.55;0.32;;;25.80;99.90;;;;;;4903810;29;20122;-69
2022/06/22 13:17:36;;;;;;;0.40;0.40;;;25.20;99.90;;;;;;4913361;29;20080;-69
2022/06/22 13:20:39;;;;;;;0.00;0.00;;;25.50;99.90;;;;;;4908215;29;20052;-69
2022/06/22 13:23:45;;;;;;;0.10;0.10;;;25.30;99.90;;;;;;4916193;29;20067;-69
2022/06/22 13:26:32;;;;;;;0.38;0.38;;;25.60;99.90;;;;;;4896523;29;20052;-69
2022/06/22 13:29:20;;;;;;;0.17;0.17;;;25.50;99.90;;;;;;4897740;29;20104;-70
2022/06/22 13:31:49;;;;;;;0.08;0.08;;;25.90;99.90;;;;;;4898592;29;20048;-69
2022/06/22 13:34:34;;;;;;;0.00;0.00;;;25.80;99.90;;;;;;4915798;29;20416;-69
2022/06/22 13:37:29;;;;;;;2.63;0.90;;;25.90;99.90;;;;;;4917182;29;20099;-69
2022/06/22 13:40:03;;;;;;;0.10;0.10;;;25.90;99.90;;;;;;4903248;29;20056;-69
2022/06/22 13:42:32;;;;;;;0.30;0.28;;;26.00;99.90;;;;;;4897626;29;20051;-69
2022/06/22 13:45:18;;;;;;;0.15;0.15;;;26.10;99.90;;;;;;4898294;29;20537;-69
2022/06/22 13:48:05;;;;;;;7.72;0.28;;;25.90;99.90;;;;;;4900127;29;20088;-69
2022/06/22 13:50:57;;;;;;;4.07;0.75;;;26.10;99.90;;;;;;4896116;29;20497;-69
2022/06/22 13:54:13;;;;;;;1.10;0.82;;;25.90;99.90;;;;;;4898178;29;20052;-69
2022/06/22 13:56:56;;;;;;;3.83;0.65;;;26.00;99.90;;;;;;4914952;29;20827;-69
2022/06/22 13:59:36;;;;;;;0.10;0.10;;;25.90;99.90;;;;;;4901310;29;20128;-69
2022/06/22 14:02:25;;;;;;;0.43;0.25;;;26.10;99.90;;;;;;4895552;29;20049;-69
2022/06/22 14:04:56;;;;;;;0.55;0.28;;;26.20;99.90;;;;;;4898104;29;20445;-69
2022/06/22 14:07:40;;;;;;;2.20;0.82;;;26.20;99.90;;;;;;4897018;29;20049;-69
2022/06/22 14:10:19;;;;;;;0.90;0.77;;;26.20;99.90;;;;;;4895771;29;20064;-69
2022/06/22 14:12:51;;;;;;;14.25;0.50;;;25.90;99.90;;;;;;4897988;29;20379;-69
2022/06/22 14:15:28;;;;;;;0.65;0.65;;;25.90;99.90;;;;;;4911532;29;20501;-69